Terminal Aerodrome Forecast
Issued by NWS

Home | Current Version | Previous Version | Text Only | Print | Product List | Glossary On
Versions: 1 2 3 4 5 6 7 8 9 10 11 12 13
257
FTUS46 KSEW 081120
TAFPAE
TAF
KPAE 081120Z 0812/0912 02003KT P6SM SCT200
     FM082000 36003KT P6SM SCT250=

USA.gov is the U.S. government's official web portal to all federal, state and local government web resources and services.